sensor_id;sensor_type;location;lat;lon;timestamp;pressure;altitude;pressure_sealevel;temperature;humidity
23229;BME280;11783;50.350;6.576;2023-07-13T00:01:31;96291.88;;;17.19;54.79
23229;BME280;11783;50.350;6.576;2023-07-13T00:03:57;96295.44;;;17.14;54.84
23229;BME280;11783;50.350;6.576;2023-07-13T00:06:23;96295.72;;;17.13;54.76
23229;BME280;11783;50.350;6.576;2023-07-13T00:08:49;96298.16;;;17.09;54.95
23229;BME280;11783;50.350;6.576;2023-07-13T00:11:15;96297.13;;;17.05;55.00
23229;BME280;11783;50.350;6.576;2023-07-13T00:13:41;96295.28;;;17.01;55.30
23229;BME280;11783;50.350;6.576;2023-07-13T00:16:08;96298.53;;;16.98;55.45
23229;BME280;11783;50.350;6.576;2023-07-13T00:18:34;96291.34;;;16.93;55.58
23229;BME280;11783;50.350;6.576;2023-07-13T00:20:59;96286.50;;;16.90;55.42
23229;BME280;11783;50.350;6.576;2023-07-13T00:23:35;96292.94;;;16.89;55.72
23229;BME280;11783;50.350;6.576;2023-07-13T00:26:02;96295.63;;;16.89;55.20
23229;BME280;11783;50.350;6.576;2023-07-13T00:28:28;96287.91;;;16.82;55.34
23229;BME280;11783;50.350;6.576;2023-07-13T00:30:53;96290.88;;;16.81;55.31
23229;BME280;11783;50.350;6.576;2023-07-13T00:33:19;96287.41;;;16.80;55.63
23229;BME280;11783;50.350;6.576;2023-07-13T00:35:44;96279.41;;;16.75;55.64
23229;BME280;11783;50.350;6.576;2023-07-13T00:38:10;96278.84;;;16.73;55.64
23229;BME280;11783;50.350;6.576;2023-07-13T00:40:36;96276.50;;;16.67;55.82
23229;BME280;11783;50.350;6.576;2023-07-13T00:43:01;96275.19;;;16.59;55.85
23229;BME280;11783;50.350;6.576;2023-07-13T00:47:52;96273.66;;;16.48;56.06
23229;BME280;11783;50.350;6.576;2023-07-13T00:50:18;96277.69;;;16.45;56.19
23229;BME280;11783;50.350;6.576;2023-07-13T00:52:47;96268.56;;;16.46;56.16
23229;BME280;11783;50.350;6.576;2023-07-13T00:55:14;96271.28;;;16.41;56.42
23229;BME280;11783;50.350;6.576;2023-07-13T00:57:40;96268.69;;;16.26;57.14
23229;BME280;11783;50.350;6.576;2023-07-13T01:00:08;96263.91;;;16.23;56.87
23229;BME280;11783;50.350;6.576;2023-07-13T01:02:35;96268.75;;;16.16;57.14
23229;BME280;11783;50.350;6.576;2023-07-13T01:05:09;96266.88;;;16.16;57.06
23229;BME280;11783;50.350;6.576;2023-07-13T01:07:35;96266.34;;;16.14;57.36
23229;BME280;11783;50.350;6.576;2023-07-13T01:10:01;96261.59;;;16.06;56.98
23229;BME280;11783;50.350;6.576;2023-07-13T01:12:27;96267.50;;;15.98;57.49
23229;BME280;11783;50.350;6.576;2023-07-13T01:14:59;96270.75;;;15.95;57.66
23229;BME280;11783;50.350;6.576;2023-07-13T01:17:26;96276.41;;;15.88;57.79
23229;BME280;11783;50.350;6.576;2023-07-13T01:19:52;96269.47;;;15.77;58.66
23229;BME280;11783;50.350;6.576;2023-07-13T01:22:18;96272.16;;;15.77;58.09
23229;BME280;11783;50.350;6.576;2023-07-13T01:24:46;96274.09;;;15.66;58.05
23229;BME280;11783;50.350;6.576;2023-07-13T01:27:15;96268.22;;;15.64;58.30
23229;BME280;11783;50.350;6.576;2023-07-13T01:29:42;96269.25;;;15.58;58.30
23229;BME280;11783;50.350;6.576;2023-07-13T01:32:10;96275.97;;;15.56;58.32
23229;BME280;11783;50.350;6.576;2023-07-13T01:34:36;96274.38;;;15.55;58.72
23229;BME280;11783;50.350;6.576;2023-07-13T01:37:03;96280.03;;;15.48;58.54
23229;BME280;11783;50.350;6.576;2023-07-13T01:39:28;96281.09;;;15.42;58.58
23229;BME280;11783;50.350;6.576;2023-07-13T01:41:54;96271.44;;;15.41;58.86
23229;BME280;11783;50.350;6.576;2023-07-13T01:44:19;96267.16;;;15.40;59.36
23229;BME280;11783;50.350;6.576;2023-07-13T01:46:44;96277.09;;;15.34;59.09
23229;BME280;11783;50.350;6.576;2023-07-13T01:49:10;96278.19;;;15.28;59.50
23229;BME280;11783;50.350;6.576;2023-07-13T01:51:35;96278.47;;;15.22;59.42
23229;BME280;11783;50.350;6.576;2023-07-13T01:54:01;96286.78;;;15.15;59.42
23229;BME280;11783;50.350;6.576;2023-07-13T01:56:26;96288.66;;;15.09;59.92
23229;BME280;11783;50.350;6.576;2023-07-13T01:58:52;96285.97;;;15.04;59.64
23229;BME280;11783;50.350;6.576;2023-07-13T02:01:17;96290.81;;;15.02;59.92
23229;BME280;11783;50.350;6.576;2023-07-13T02:03:43;96290.81;;;14.97;60.22
23229;BME280;11783;50.350;6.576;2023-07-13T02:06:08;96291.88;;;14.96;59.96
23229;BME280;11783;50.350;6.576;2023-07-13T02:08:34;96291.09;;;14.96;60.20
23229;BME280;11783;50.350;6.576;2023-07-13T02:11:00;96293.78;;;14.91;60.19
23229;BME280;11783;50.350;6.576;2023-07-13T02:13:25;96295.34;;;14.87;60.06
23229;BME280;11783;50.350;6.576;2023-07-13T02:15:51;96301.50;;;14.87;60.53
23229;BME280;11783;50.350;6.576;2023-07-13T02:18:17;96288.66;;;14.84;59.90
23229;BME280;11783;50.350;6.576;2023-07-13T02:20:43;96296.72;;;14.79;60.47
23229;BME280;11783;50.350;6.576;2023-07-13T02:23:09;96298.31;;;14.75;60.44
23229;BME280;11783;50.350;6.576;2023-07-13T02:25:34;96301.81;;;14.70;60.28
23229;BME280;11783;50.350;6.576;2023-07-13T02:27:59;96303.13;;;14.63;61.18
23229;BME280;11783;50.350;6.576;2023-07-13T02:30:25;96301.50;;;14.57;61.00
23229;BME280;11783;50.350;6.576;2023-07-13T02:32:50;96302.84;;;14.54;61.50
23229;BME280;11783;50.350;6.576;2023-07-13T02:35:16;96300.41;;;14.47;61.09
23229;BME280;11783;50.350;6.576;2023-07-13T02:37:41;96303.88;;;14.43;61.02
23229;BME280;11783;50.350;6.576;2023-07-13T02:40:07;96303.88;;;14.43;61.15
23229;BME280;11783;50.350;6.576;2023-07-13T02:42:34;96309.75;;;14.40;61.42
23229;BME280;11783;50.350;6.576;2023-07-13T02:44:59;96312.41;;;14.35;61.51
23229;BME280;11783;50.350;6.576;2023-07-13T02:47:25;96305.75;;;14.32;61.49
23229;BME280;11783;50.350;6.576;2023-07-13T02:49:51;96302.75;;;14.23;61.80
23229;BME280;11783;50.350;6.576;2023-07-13T02:52:17;96303.56;;;14.19;62.60
23229;BME280;11783;50.350;6.576;2023-07-13T02:54:42;96301.41;;;14.16;62.19
23229;BME280;11783;50.350;6.576;2023-07-13T02:57:08;96309.13;;;14.12;62.21
23229;BME280;11783;50.350;6.576;2023-07-13T02:59:33;96292.28;;;14.07;62.46
23229;BME280;11783;50.350;6.576;2023-07-13T03:01:58;96308.59;;;14.05;62.06
23229;BME280;11783;50.350;6.576;2023-07-13T03:04:25;96304.03;;;14.01;62.82
23229;BME280;11783;50.350;6.576;2023-07-13T03:06:50;96302.38;;;13.89;63.05
23229;BME280;11783;50.350;6.576;2023-07-13T03:09:16;96303.44;;;13.88;63.10
23229;BME280;11783;50.350;6.576;2023-07-13T03:11:41;96303.97;;;13.80;64.47
23229;BME280;11783;50.350;6.576;2023-07-13T03:14:08;96306.09;;;13.78;63.52
23229;BME280;11783;50.350;6.576;2023-07-13T03:16:33;96304.22;;;13.79;63.61
23229;BME280;11783;50.350;6.576;2023-07-13T03:18:58;96308.19;;;13.71;64.89
23229;BME280;11783;50.350;6.576;2023-07-13T03:21:24;96301.75;;;13.62;64.47
23229;BME280;11783;50.350;6.576;2023-07-13T03:23:49;96304.94;;;13.59;65.12
23229;BME280;11783;50.350;6.576;2023-07-13T03:26:17;96315.63;;;13.59;64.70
23229;BME280;11783;50.350;6.576;2023-07-13T03:28:43;96308.91;;;13.56;64.98
23229;BME280;11783;50.350;6.576;2023-07-13T03:31:15;96311.31;;;13.53;64.48
23229;BME280;11783;50.350;6.576;2023-07-13T03:33:41;96309.19;;;13.55;64.55
23229;BME280;11783;50.350;6.576;2023-07-13T03:36:16;96315.31;;;13.50;64.49
23229;BME280;11783;50.350;6.576;2023-07-13T03:38:45;96317.44;;;13.48;64.70
23229;BME280;11783;50.350;6.576;2023-07-13T03:41:11;96318.75;;;13.46;64.49
23229;BME280;11783;50.350;6.576;2023-07-13T03:43:37;96318.16;;;13.39;65.00
23229;BME280;11783;50.350;6.576;2023-07-13T03:46:02;96328.56;;;13.35;64.69
23229;BME280;11783;50.350;6.576;2023-07-13T03:48:27;96324.53;;;13.32;64.54
23229;BME280;11783;50.350;6.576;2023-07-13T03:50:53;96329.06;;;13.32;65.30
23229;BME280;11783;50.350;6.576;2023-07-13T03:53:18;96329.34;;;13.30;63.96
23229;BME280;11783;50.350;6.576;2023-07-13T03:55:44;96336.00;;;13.28;65.98
23229;BME280;11783;50.350;6.576;2023-07-13T03:58:32;96330.13;;;13.26;64.92
23229;BME280;11783;50.350;6.576;2023-07-13T04:00:59;96329.28;;;13.20;64.67
23229;BME280;11783;50.350;6.576;2023-07-13T04:03:25;96333.25;;;13.18;65.57
23229;BME280;11783;50.350;6.576;2023-07-13T04:05:54;96336.66;;;13.13;65.25
23229;BME280;11783;50.350;6.576;2023-07-13T04:08:19;96341.34;;;13.01;66.96
23229;BME280;11783;50.350;6.576;2023-07-13T04:10:44;96338.16;;;12.99;67.61
23229;BME280;11783;50.350;6.576;2023-07-13T04:13:10;96333.84;;;12.93;67.40
23229;BME280;11783;50.350;6.576;2023-07-13T04:15:35;96336.50;;;12.93;68.13
23229;BME280;11783;50.350;6.576;2023-07-13T04:18:01;96330.06;;;12.89;67.41
23229;BME280;11783;50.350;6.576;2023-07-13T04:20:28;96329.28;;;12.88;68.23
23229;BME280;11783;50.350;6.576;2023-07-13T04:22:53;96327.38;;;12.84;68.27
23229;BME280;11783;50.350;6.576;2023-07-13T04:25:20;96335.41;;;12.89;69.28
23229;BME280;11783;50.350;6.576;2023-07-13T04:27:45;96333.00;;;12.87;69.05
23229;BME280;11783;50.350;6.576;2023-07-13T04:30:11;96338.63;;;12.91;71.18
23229;BME280;11783;50.350;6.576;2023-07-13T04:32:36;96337.03;;;12.90;69.96
23229;BME280;11783;50.350;6.576;2023-07-13T04:35:01;96332.19;;;12.87;70.32
23229;BME280;11783;50.350;6.576;2023-07-13T04:37:27;96330.34;;;12.87;69.73
23229;BME280;11783;50.350;6.576;2023-07-13T04:39:52;96336.72;;;12.86;69.79
23229;BME280;11783;50.350;6.576;2023-07-13T04:42:18;96325.44;;;12.79;68.28
23229;BME280;11783;50.350;6.576;2023-07-13T04:44:50;96327.59;;;12.82;69.63
23229;BME280;11783;50.350;6.576;2023-07-13T04:47:17;96332.13;;;12.82;69.69
23229;BME280;11783;50.350;6.576;2023-07-13T04:49:43;96328.34;;;12.72;69.36
23229;BME280;11783;50.350;6.576;2023-07-13T04:52:09;96323.28;;;12.76;70.82
23229;BME280;11783;50.350;6.576;2023-07-13T04:54:34;96327.03;;;12.75;70.26
23229;BME280;11783;50.350;6.576;2023-07-13T04:57:00;96330.25;;;12.77;71.96
23229;BME280;11783;50.350;6.576;2023-07-13T04:59:26;96335.81;;;12.76;70.87
23229;BME280;11783;50.350;6.576;2023-07-13T05:01:52;96340.91;;;12.77;72.23
23229;BME280;11783;50.350;6.576;2023-07-13T05:04:18;96339.25;;;12.71;73.40
23229;BME280;11783;50.350;6.576;2023-07-13T05:06:43;96343.31;;;12.47;78.32
23229;BME280;11783;50.350;6.576;2023-07-13T05:09:09;96343.09;;;12.53;73.97
23229;BME280;11783;50.350;6.576;2023-07-13T05:11:34;96348.78;;;12.35;76.67
23229;BME280;11783;50.350;6.576;2023-07-13T05:13:59;96349.63;;;12.40;74.84
23229;BME280;11783;50.350;6.576;2023-07-13T05:16:26;96347.38;;;12.54;80.92
23229;BME280;11783;50.350;6.576;2023-07-13T05:18:52;96347.94;;;12.29;79.44
23229;BME280;11783;50.350;6.576;2023-07-13T05:21:17;96348.94;;;12.50;80.76
23229;BME280;11783;50.350;6.576;2023-07-13T05:23:42;96360.75;;;12.59;79.60
23229;BME280;11783;50.350;6.576;2023-07-13T05:26:09;96351.75;;;12.65;77.80
23229;BME280;11783;50.350;6.576;2023-07-13T05:28:36;96345.69;;;12.75;81.25
23229;BME280;11783;50.350;6.576;2023-07-13T05:31:01;96348.91;;;12.77;77.70
23229;BME280;11783;50.350;6.576;2023-07-13T05:33:27;96355.91;;;12.83;75.60
23229;BME280;11783;50.350;6.576;2023-07-13T05:35:52;96354.84;;;12.84;77.38
23229;BME280;11783;50.350;6.576;2023-07-13T05:38:17;96364.25;;;12.92;75.74
23229;BME280;11783;50.350;6.576;2023-07-13T05:40:44;96362.69;;;13.01;78.71
23229;BME280;11783;50.350;6.576;2023-07-13T05:43:10;96371.56;;;13.07;80.16
23229;BME280;11783;50.350;6.576;2023-07-13T05:45:35;96371.03;;;13.04;84.92
23229;BME280;11783;50.350;6.576;2023-07-13T05:48:00;96367.34;;;13.11;83.25
23229;BME280;11783;50.350;6.576;2023-07-13T05:50:26;96370.84;;;13.16;82.79
23229;BME280;11783;50.350;6.576;2023-07-13T05:52:52;96371.16;;;13.20;83.03
23229;BME280;11783;50.350;6.576;2023-07-13T05:55:17;96373.63;;;13.26;84.66
23229;BME280;11783;50.350;6.576;2023-07-13T05:57:43;96379.22;;;13.25;82.02
23229;BME280;11783;50.350;6.576;2023-07-13T06:00:09;96370.19;;;13.31;82.91
23229;BME280;11783;50.350;6.576;2023-07-13T06:02:35;96376.34;;;13.37;86.05
23229;BME280;11783;50.350;6.576;2023-07-13T06:05:00;96379.56;;;13.39;84.52
23229;BME280;11783;50.350;6.576;2023-07-13T06:07:26;96384.91;;;13.39;84.78
23229;BME280;11783;50.350;6.576;2023-07-13T06:09:51;96383.66;;;13.51;85.40
23229;BME280;11783;50.350;6.576;2023-07-13T06:12:16;96377.25;;;13.52;86.98
23229;BME280;11783;50.350;6.576;2023-07-13T06:14:42;96385.88;;;13.59;84.87
23229;BME280;11783;50.350;6.576;2023-07-13T06:17:07;96386.66;;;13.60;86.94
23229;BME280;11783;50.350;6.576;2023-07-13T06:19:33;96386.41;;;13.61;84.35
23229;BME280;11783;50.350;6.576;2023-07-13T06:21:59;96390.44;;;13.69;86.78
23229;BME280;11783;50.350;6.576;2023-07-13T06:24:25;96386.72;;;13.75;84.57
23229;BME280;11783;50.350;6.576;2023-07-13T06:26:50;96395.00;;;13.74;85.47
23229;BME280;11783;50.350;6.576;2023-07-13T06:29:16;96396.59;;;13.75;86.02
23229;BME280;11783;50.350;6.576;2023-07-13T06:31:41;96398.00;;;13.77;86.38
23229;BME280;11783;50.350;6.576;2023-07-13T06:34:07;96410.81;;;13.80;86.22
23229;BME280;11783;50.350;6.576;2023-07-13T06:36:32;96402.84;;;13.90;84.77
23229;BME280;11783;50.350;6.576;2023-07-13T06:38:57;96402.31;;;13.88;86.97
23229;BME280;11783;50.350;6.576;2023-07-13T06:41:23;96399.66;;;13.93;84.41
23229;BME280;11783;50.350;6.576;2023-07-13T06:43:51;96404.78;;;14.00;83.85
23229;BME280;11783;50.350;6.576;2023-07-13T06:46:17;96399.19;;;14.07;83.83
23229;BME280;11783;50.350;6.576;2023-07-13T06:48:42;96398.66;;;14.10;83.88
23229;BME280;11783;50.350;6.576;2023-07-13T06:51:08;96405.91;;;14.14;83.35
23229;BME280;11783;50.350;6.576;2023-07-13T06:53:33;96396.84;;;14.15;83.10
23229;BME280;11783;50.350;6.576;2023-07-13T06:55:59;96395.78;;;14.16;83.19
23229;BME280;11783;50.350;6.576;2023-07-13T06:58:24;96399.00;;;14.23;84.03
23229;BME280;11783;50.350;6.576;2023-07-13T07:00:51;96401.72;;;14.34;83.34
23229;BME280;11783;50.350;6.576;2023-07-13T07:03:17;96401.19;;;14.42;82.17
23229;BME280;11783;50.350;6.576;2023-07-13T07:05:43;96401.50;;;14.45;81.82
23229;BME280;11783;50.350;6.576;2023-07-13T07:08:08;96409.03;;;14.53;82.41
23229;BME280;11783;50.350;6.576;2023-07-13T07:10:34;96409.56;;;14.50;80.59
23229;BME280;11783;50.350;6.576;2023-07-13T07:12:59;96415.47;;;14.63;80.29
23229;BME280;11783;50.350;6.576;2023-07-13T07:15:27;96410.66;;;14.65;81.07
23229;BME280;11783;50.350;6.576;2023-07-13T07:17:55;96410.16;;;14.73;81.79
23229;BME280;11783;50.350;6.576;2023-07-13T07:20:21;96402.66;;;14.80;81.07
23229;BME280;11783;50.350;6.576;2023-07-13T07:22:47;96413.38;;;14.90;80.36
23229;BME280;11783;50.350;6.576;2023-07-13T07:25:12;96409.63;;;15.01;79.24
23229;BME280;11783;50.350;6.576;2023-07-13T07:27:38;96400.28;;;15.09;79.93
23229;BME280;11783;50.350;6.576;2023-07-13T07:30:04;96397.59;;;15.19;79.99
23229;BME280;11783;50.350;6.576;2023-07-13T07:32:30;96409.38;;;15.38;80.43
23229;BME280;11783;50.350;6.576;2023-07-13T07:34:57;96405.63;;;15.55;78.86
23229;BME280;11783;50.350;6.576;2023-07-13T07:37:22;96412.59;;;15.71;78.21
23229;BME280;11783;50.350;6.576;2023-07-13T07:39:47;96420.09;;;15.84;75.73
23229;BME280;11783;50.350;6.576;2023-07-13T07:42:13;96418.44;;;15.93;74.90
23229;BME280;11783;50.350;6.576;2023-07-13T07:44:40;96427.00;;;16.05;74.03
23229;BME280;11783;50.350;6.576;2023-07-13T07:47:07;96427.78;;;16.06;72.71
23229;BME280;11783;50.350;6.576;2023-07-13T07:49:32;96420.50;;;16.17;73.06
23229;BME280;11783;50.350;6.576;2023-07-13T07:51:57;96421.56;;;16.26;71.88
23229;BME280;11783;50.350;6.576;2023-07-13T07:54:23;96420.19;;;16.33;71.33
23229;BME280;11783;50.350;6.576;2023-07-13T07:56:48;96413.16;;;16.48;72.22
23229;BME280;11783;50.350;6.576;2023-07-13T07:59:14;96414.13;;;16.72;71.09
23229;BME280;11783;50.350;6.576;2023-07-13T08:01:39;96419.91;;;16.94;71.39
23229;BME280;11783;50.350;6.576;2023-07-13T08:04:05;96413.31;;;17.16;70.55
23229;BME280;11783;50.350;6.576;2023-07-13T08:06:32;96413.72;;;17.33;70.23
23229;BME280;11783;50.350;6.576;2023-07-13T08:08:58;96410.06;;;17.53;68.09
23229;BME280;11783;50.350;6.576;2023-07-13T08:11:23;96417.97;;;17.73;68.16
23229;BME280;11783;50.350;6.576;2023-07-13T08:13:49;96421.03;;;17.91;64.76
23229;BME280;11783;50.350;6.576;2023-07-13T08:16:15;96420.28;;;18.09;64.40
23229;BME280;11783;50.350;6.576;2023-07-13T08:18:40;96415.03;;;18.23;62.69
23229;BME280;11783;50.350;6.576;2023-07-13T08:21:07;96411.19;;;18.29;63.30
23229;BME280;11783;50.350;6.576;2023-07-13T08:23:33;96417.38;;;18.29;62.58
23229;BME280;11783;50.350;6.576;2023-07-13T08:25:59;96417.97;;;18.45;62.10
23229;BME280;11783;50.350;6.576;2023-07-13T08:28:27;96409.97;;;18.64;62.41
23229;BME280;11783;50.350;6.576;2023-07-13T08:30:52;96413.00;;;18.76;61.86
23229;BME280;11783;50.350;6.576;2023-07-13T08:33:19;96409.31;;;18.91;61.81
23229;BME280;11783;50.350;6.576;2023-07-13T08:35:48;96409.50;;;19.13;60.01
23229;BME280;11783;50.350;6.576;2023-07-13T08:38:15;96409.78;;;19.30;58.99
23229;BME280;11783;50.350;6.576;2023-07-13T08:40:42;96408.34;;;19.38;58.48
23229;BME280;11783;50.350;6.576;2023-07-13T08:43:17;96411.63;;;19.49;57.66
23229;BME280;11783;50.350;6.576;2023-07-13T08:45:59;96406.03;;;19.64;56.45
23229;BME280;11783;50.350;6.576;2023-07-13T08:48:28;96415.75;;;19.79;57.28
23229;BME280;11783;50.350;6.576;2023-07-13T08:51:07;96414.88;;;19.97;55.49
23229;BME280;11783;50.350;6.576;2023-07-13T08:53:39;96422.56;;;20.04;55.67
23229;BME280;11783;50.350;6.576;2023-07-13T08:56:13;96404.19;;;20.06;54.58
23229;BME280;11783;50.350;6.576;2023-07-13T08:58:42;96416.56;;;20.07;53.19
23229;BME280;11783;50.350;6.576;2023-07-13T09:04:15;96405.69;;;20.39;54.23
23229;BME280;11783;50.350;6.576;2023-07-13T09:06:45;96408.31;;;20.44;52.07
23229;BME280;11783;50.350;6.576;2023-07-13T09:09:24;96424.19;;;20.32;52.38
23229;BME280;11783;50.350;6.576;2023-07-13T09:12:11;96402.41;;;20.42;52.92
23229;BME280;11783;50.350;6.576;2023-07-13T09:14:41;96408.19;;;20.36;53.20
23229;BME280;11783;50.350;6.576;2023-07-13T09:17:21;96423.63;;;20.49;51.54
23229;BME280;11783;50.350;6.576;2023-07-13T09:22:47;96426.69;;;20.29;48.88
23229;BME280;11783;50.350;6.576;2023-07-13T09:27:49;96422.69;;;20.40;50.21
23229;BME280;11783;50.350;6.576;2023-07-13T09:30:28;96423.63;;;20.49;49.16
23229;BME280;11783;50.350;6.576;2023-07-13T09:32:55;96421.50;;;20.60;50.54
23229;BME280;11783;50.350;6.576;2023-07-13T09:35:26;96414.97;;;20.74;49.10
23229;BME280;11783;50.350;6.576;2023-07-13T09:37:57;96432.28;;;20.87;49.32
23229;BME280;11783;50.350;6.576;2023-07-13T09:40:29;96433.69;;;20.84;47.94
23229;BME280;11783;50.350;6.576;2023-07-13T09:42:56;96434.78;;;20.70;47.47
23229;BME280;11783;50.350;6.576;2023-07-13T09:45:28;96432.22;;;20.65;47.77
23229;BME280;11783;50.350;6.576;2023-07-13T09:48:00;96436.09;;;20.72;49.08
23229;BME280;11783;50.350;6.576;2023-07-13T09:50:28;96427.56;;;20.79;48.23
23229;BME280;11783;50.350;6.576;2023-07-13T09:52:54;96421.47;;;20.73;48.28
23229;BME280;11783;50.350;6.576;2023-07-13T09:55:32;96405.69;;;20.67;48.06
23229;BME280;11783;50.350;6.576;2023-07-13T09:58:04;96417.06;;;20.77;47.36
23229;BME280;11783;50.350;6.576;2023-07-13T10:00:30;96412.69;;;20.68;46.29
23229;BME280;11783;50.350;6.576;2023-07-13T10:03:05;96401.16;;;20.76;46.34
23229;BME280;11783;50.350;6.576;2023-07-13T10:05:39;96404.84;;;20.80;47.74
23229;BME280;11783;50.350;6.576;2023-07-13T10:08:04;96422.28;;;21.10;47.68
23229;BME280;11783;50.350;6.576;2023-07-13T10:10:32;96417.38;;;21.26;46.40
23229;BME280;11783;50.350;6.576;2023-07-13T10:12:58;96421.94;;;21.39;44.91
23229;BME280;11783;50.350;6.576;2023-07-13T10:15:25;96425.44;;;21.39;44.80
23229;BME280;11783;50.350;6.576;2023-07-13T10:17:53;96425.19;;;21.13;45.05
23229;BME280;11783;50.350;6.576;2023-07-13T10:20:21;96418.94;;;20.91;44.96
23229;BME280;11783;50.350;6.576;2023-07-13T10:25:19;96427.09;;;20.63;45.47
23229;BME280;11783;50.350;6.576;2023-07-13T10:27:46;96446.41;;;20.56;45.13
23229;BME280;11783;50.350;6.576;2023-07-13T10:32:43;96440.09;;;20.61;45.94
23229;BME280;11783;50.350;6.576;2023-07-13T10:35:12;96441.41;;;20.50;45.21
23229;BME280;11783;50.350;6.576;2023-07-13T10:38:03;96445.19;;;20.63;47.41
23229;BME280;11783;50.350;6.576;2023-07-13T10:40:44;96458.38;;;20.78;45.68
23229;BME280;11783;50.350;6.576;2023-07-13T10:43:28;96444.69;;;20.74;44.37
23229;BME280;11783;50.350;6.576;2023-07-13T10:45:59;96438.38;;;20.79;42.64
23229;BME280;11783;50.350;6.576;2023-07-13T10:48:25;96449.78;;;20.76;43.59
23229;BME280;11783;50.350;6.576;2023-07-13T10:50:52;96449.09;;;20.84;43.76
23229;BME280;11783;50.350;6.576;2023-07-13T10:53:30;96456.59;;;20.73;44.32
23229;BME280;11783;50.350;6.576;2023-07-13T10:58:43;96448.91;;;20.53;45.45
23229;BME280;11783;50.350;6.576;2023-07-13T11:01:14;96453.69;;;20.42;45.72
23229;BME280;11783;50.350;6.576;2023-07-13T11:08:38;96441.38;;;20.77;44.37
23229;BME280;11783;50.350;6.576;2023-07-13T11:18:47;96471.00;;;20.69;43.21
23229;BME280;11783;50.350;6.576;2023-07-13T11:21:22;96465.00;;;20.58;43.59
23229;BME280;11783;50.350;6.576;2023-07-13T11:24:02;96454.50;;;20.56;42.72
23229;BME280;11783;50.350;6.576;2023-07-13T11:26:42;96444.63;;;20.52;44.14
23229;BME280;11783;50.350;6.576;2023-07-13T11:32:00;96455.38;;;20.79;44.16
23229;BME280;11783;50.350;6.576;2023-07-13T11:34:33;96457.75;;;20.95;43.19
23229;BME280;11783;50.350;6.576;2023-07-13T11:37:00;96454.34;;;21.03;42.58
23229;BME280;11783;50.350;6.576;2023-07-13T11:39:35;96456.78;;;20.77;42.00
23229;BME280;11783;50.350;6.576;2023-07-13T11:42:12;96465.56;;;20.96;41.53
23229;BME280;11783;50.350;6.576;2023-07-13T11:44:43;96463.75;;;21.05;42.57
23229;BME280;11783;50.350;6.576;2023-07-13T11:47:22;96452.31;;;21.08;41.44
23229;BME280;11783;50.350;6.576;2023-07-13T11:49:50;96451.41;;;21.13;41.76
23229;BME280;11783;50.350;6.576;2023-07-13T11:52:21;96455.00;;;21.22;41.19
23229;BME280;11783;50.350;6.576;2023-07-13T11:54:50;96461.72;;;21.25;40.48
23229;BME280;11783;50.350;6.576;2023-07-13T11:57:27;96468.06;;;20.93;42.07
23229;BME280;11783;50.350;6.576;2023-07-13T11:59:54;96471.88;;;20.92;42.71
23229;BME280;11783;50.350;6.576;2023-07-13T12:02:36;96465.38;;;20.93;42.80
23229;BME280;11783;50.350;6.576;2023-07-13T12:05:04;96461.09;;;20.78;43.08
23229;BME280;11783;50.350;6.576;2023-07-13T12:07:33;96460.41;;;20.72;43.69
23229;BME280;11783;50.350;6.576;2023-07-13T12:10:02;96476.41;;;20.82;44.10
23229;BME280;11783;50.350;6.576;2023-07-13T12:12:29;96455.56;;;20.97;43.43
23229;BME280;11783;50.350;6.576;2023-07-13T12:14:55;96454.94;;;21.00;43.29
23229;BME280;11783;50.350;6.576;2023-07-13T12:17:23;96465.97;;;20.90;43.90
23229;BME280;11783;50.350;6.576;2023-07-13T12:19:50;96473.78;;;20.91;44.04
23229;BME280;11783;50.350;6.576;2023-07-13T12:22:17;96474.69;;;20.86;43.55
23229;BME280;11783;50.350;6.576;2023-07-13T12:24:44;96468.56;;;20.95;43.83
23229;BME280;11783;50.350;6.576;2023-07-13T12:27:24;96477.88;;;21.02;44.13
23229;BME280;11783;50.350;6.576;2023-07-13T12:30:02;96486.47;;;21.04;44.15
23229;BME280;11783;50.350;6.576;2023-07-13T12:32:28;96479.25;;;21.00;44.51
23229;BME280;11783;50.350;6.576;2023-07-13T12:35:12;96488.97;;;21.01;44.07
23229;BME280;11783;50.350;6.576;2023-07-13T12:37:41;96495.09;;;20.93;44.51
23229;BME280;11783;50.350;6.576;2023-07-13T12:40:14;96493.19;;;20.79;44.02
23229;BME280;11783;50.350;6.576;2023-07-13T12:42:39;96487.03;;;20.65;44.93
23229;BME280;11783;50.350;6.576;2023-07-13T12:45:19;96496.50;;;20.76;45.50
23229;BME280;11783;50.350;6.576;2023-07-13T12:47:48;96504.03;;;20.66;45.45
23229;BME280;11783;50.350;6.576;2023-07-13T12:50:17;96508.22;;;20.72;46.14
23229;BME280;11783;50.350;6.576;2023-07-13T12:52:44;96506.13;;;20.82;45.04
23229;BME280;11783;50.350;6.576;2023-07-13T12:55:17;96505.69;;;20.62;44.82
23229;BME280;11783;50.350;6.576;2023-07-13T12:57:54;96495.41;;;20.77;45.50
23229;BME280;11783;50.350;6.576;2023-07-13T13:00:30;96489.31;;;20.85;44.75
23229;BME280;11783;50.350;6.576;2023-07-13T13:05:45;96499.56;;;20.97;45.70
23229;BME280;11783;50.350;6.576;2023-07-13T13:08:11;96509.59;;;20.97;45.54
23229;BME280;11783;50.350;6.576;2023-07-13T13:10:37;96506.38;;;20.95;46.19
23229;BME280;11783;50.350;6.576;2023-07-13T13:13:02;96508.19;;;20.99;46.29
23229;BME280;11783;50.350;6.576;2023-07-13T13:15:28;96501.09;;;20.90;46.72
23229;BME280;11783;50.350;6.576;2023-07-13T13:17:55;96498.97;;;21.00;46.72
23229;BME280;11783;50.350;6.576;2023-07-13T13:20:21;96504.59;;;20.76;45.81
23229;BME280;11783;50.350;6.576;2023-07-13T13:22:47;96511.53;;;20.69;46.11
23229;BME280;11783;50.350;6.576;2023-07-13T13:25:14;96497.69;;;20.43;48.37
23229;BME280;11783;50.350;6.576;2023-07-13T13:27:43;96496.22;;;20.64;47.90
23229;BME280;11783;50.350;6.576;2023-07-13T13:30:17;96517.53;;;20.66;47.42
23229;BME280;11783;50.350;6.576;2023-07-13T13:32:44;96492.00;;;20.72;46.83
23229;BME280;11783;50.350;6.576;2023-07-13T13:35:18;96501.31;;;20.66;46.75
23229;BME280;11783;50.350;6.576;2023-07-13T13:37:45;96490.28;;;20.62;45.64
23229;BME280;11783;50.350;6.576;2023-07-13T13:40:19;96496.81;;;20.61;47.10